sensor_id;sensor_type;location;lat;lon;timestamp;pressure;altitude;pressure_sealevel;temperature
66403;BMP180;53212;52.112;5.144;2023-07-09T00:02:26;101741.40;;;23.40
66403;BMP180;53212;52.112;5.144;2023-07-09T00:04:52;101740.00;;;23.40
66403;BMP180;53212;52.112;5.144;2023-07-09T00:07:22;101734.40;;;23.40
66403;BMP180;53212;52.112;5.144;2023-07-09T00:09:50;101735.00;;;23.32
66403;BMP180;53212;52.112;5.144;2023-07-09T00:12:18;101738.20;;;23.30
66403;BMP180;53212;52.112;5.144;2023-07-09T00:14:44;101740.80;;;23.30
66403;BMP180;53212;52.112;5.144;2023-07-09T00:17:24;101736.40;;;23.30
66403;BMP180;53212;52.112;5.144;2023-07-09T00:19:51;101740.60;;;23.20
66403;BMP180;53212;52.112;5.144;2023-07-09T00:22:18;101744.40;;;23.18
66403;BMP180;53212;52.112;5.144;2023-07-09T00:24:49;101746.80;;;23.10
66403;BMP180;53212;52.112;5.144;2023-07-09T00:27:18;101747.60;;;23.10
66403;BMP180;53212;52.112;5.144;2023-07-09T00:29:44;101755.00;;;23.10
66403;BMP180;53212;52.112;5.144;2023-07-09T00:32:19;101756.00;;;23.00
66403;BMP180;53212;52.112;5.144;2023-07-09T00:34:49;101761.20;;;23.00
66403;BMP180;53212;52.112;5.144;2023-07-09T00:37:17;101760.80;;;22.90
66403;BMP180;53212;52.112;5.144;2023-07-09T00:39:46;101761.00;;;22.90
66403;BMP180;53212;52.112;5.144;2023-07-09T00:42:17;101759.60;;;22.90
66403;BMP180;53212;52.112;5.144;2023-07-09T00:44:54;101760.60;;;22.90
66403;BMP180;53212;52.112;5.144;2023-07-09T00:50:29;101769.20;;;23.00
66403;BMP180;53212;52.112;5.144;2023-07-09T00:53:00;101768.20;;;23.00
66403;BMP180;53212;52.112;5.144;2023-07-09T00:55:36;101768.00;;;23.00
66403;BMP180;53212;52.112;5.144;2023-07-09T00:58:08;101772.00;;;23.00
66403;BMP180;53212;52.112;5.144;2023-07-09T01:00:43;101761.80;;;22.94
66403;BMP180;53212;52.112;5.144;2023-07-09T01:03:35;101763.40;;;22.90
66403;BMP180;53212;52.112;5.144;2023-07-09T01:06:00;101757.60;;;22.90
66403;BMP180;53212;52.112;5.144;2023-07-09T01:08:30;101753.40;;;22.86
66403;BMP180;53212;52.112;5.144;2023-07-09T01:10:58;101753.80;;;22.80
66403;BMP180;53212;52.112;5.144;2023-07-09T01:13:28;101757.40;;;22.80
66403;BMP180;53212;52.112;5.144;2023-07-09T01:15:57;101754.60;;;22.80
66403;BMP180;53212;52.112;5.144;2023-07-09T01:18:23;101756.60;;;22.80
66403;BMP180;53212;52.112;5.144;2023-07-09T01:20:51;101761.00;;;22.80
66403;BMP180;53212;52.112;5.144;2023-07-09T01:23:18;101762.20;;;22.70
66403;BMP180;53212;52.112;5.144;2023-07-09T01:25:49;101762.60;;;22.70
66403;BMP180;53212;52.112;5.144;2023-07-09T01:28:18;101761.80;;;22.62
66403;BMP180;53212;52.112;5.144;2023-07-09T01:30:46;101761.00;;;22.60
66403;BMP180;53212;52.112;5.144;2023-07-09T01:33:14;101760.20;;;22.60
66403;BMP180;53212;52.112;5.144;2023-07-09T01:35:40;101763.40;;;22.60
66403;BMP180;53212;52.112;5.144;2023-07-09T01:38:07;101760.00;;;22.50
66403;BMP180;53212;52.112;5.144;2023-07-09T01:40:34;101763.00;;;22.50
66403;BMP180;53212;52.112;5.144;2023-07-09T01:43:03;101764.00;;;22.40
66403;BMP180;53212;52.112;5.144;2023-07-09T01:45:31;101764.60;;;22.40
66403;BMP180;53212;52.112;5.144;2023-07-09T01:47:58;101764.80;;;22.40
66403;BMP180;53212;52.112;5.144;2023-07-09T01:50:24;101768.60;;;22.30
66403;BMP180;53212;52.112;5.144;2023-07-09T01:52:52;101768.00;;;22.30
66403;BMP180;53212;52.112;5.144;2023-07-09T01:55:19;101764.80;;;22.24
66403;BMP180;53212;52.112;5.144;2023-07-09T01:57:45;101770.20;;;22.20
66403;BMP180;53212;52.112;5.144;2023-07-09T02:00:15;101770.40;;;22.20
66403;BMP180;53212;52.112;5.144;2023-07-09T02:02:43;101772.40;;;22.20
66403;BMP180;53212;52.112;5.144;2023-07-09T02:05:11;101780.00;;;22.20
66403;BMP180;53212;52.112;5.144;2023-07-09T02:07:38;101779.40;;;22.20
66403;BMP180;53212;52.112;5.144;2023-07-09T02:10:04;101775.80;;;22.16
66403;BMP180;53212;52.112;5.144;2023-07-09T02:12:30;101771.60;;;22.10
66403;BMP180;53212;52.112;5.144;2023-07-09T02:14:55;101771.00;;;22.10
66403;BMP180;53212;52.112;5.144;2023-07-09T02:17:21;101774.60;;;22.10
66403;BMP180;53212;52.112;5.144;2023-07-09T02:19:46;101771.80;;;22.00
66403;BMP180;53212;52.112;5.144;2023-07-09T02:22:12;101770.20;;;21.90
66403;BMP180;53212;52.112;5.144;2023-07-09T02:24:38;101769.40;;;21.90
66403;BMP180;53212;52.112;5.144;2023-07-09T02:27:07;101770.60;;;21.90
66403;BMP180;53212;52.112;5.144;2023-07-09T02:29:33;101774.40;;;21.82
66403;BMP180;53212;52.112;5.144;2023-07-09T02:32:00;101776.60;;;21.80
66403;BMP180;53212;52.112;5.144;2023-07-09T02:34:27;101775.20;;;21.80
66403;BMP180;53212;52.112;5.144;2023-07-09T02:36:54;101773.80;;;21.80
66403;BMP180;53212;52.112;5.144;2023-07-09T02:39:21;101772.00;;;21.80
66403;BMP180;53212;52.112;5.144;2023-07-09T02:41:47;101772.00;;;21.80
66403;BMP180;53212;52.112;5.144;2023-07-09T02:44:13;101763.80;;;21.70
66403;BMP180;53212;52.112;5.144;2023-07-09T02:46:38;101765.00;;;21.70
66403;BMP180;53212;52.112;5.144;2023-07-09T02:49:05;101763.40;;;21.60
66403;BMP180;53212;52.112;5.144;2023-07-09T02:51:31;101765.80;;;21.60
66403;BMP180;53212;52.112;5.144;2023-07-09T02:54:01;101765.60;;;21.60
66403;BMP180;53212;52.112;5.144;2023-07-09T02:56:28;101769.80;;;21.60
66403;BMP180;53212;52.112;5.144;2023-07-09T02:58:53;101771.60;;;21.60
66403;BMP180;53212;52.112;5.144;2023-07-09T03:01:19;101770.80;;;21.58
66403;BMP180;53212;52.112;5.144;2023-07-09T03:03:51;101768.60;;;21.54
66403;BMP180;53212;52.112;5.144;2023-07-09T03:06:20;101772.20;;;21.50
66403;BMP180;53212;52.112;5.144;2023-07-09T03:08:45;101767.00;;;21.44
66403;BMP180;53212;52.112;5.144;2023-07-09T03:11:12;101766.00;;;21.42
66403;BMP180;53212;52.112;5.144;2023-07-09T03:13:38;101766.40;;;21.40
66403;BMP180;53212;52.112;5.144;2023-07-09T03:16:04;101768.20;;;21.40
66403;BMP180;53212;52.112;5.144;2023-07-09T03:18:30;101769.80;;;21.40
66403;BMP180;53212;52.112;5.144;2023-07-09T03:20:56;101768.40;;;21.40
66403;BMP180;53212;52.112;5.144;2023-07-09T03:23:22;101767.20;;;21.40
66403;BMP180;53212;52.112;5.144;2023-07-09T03:25:47;101768.20;;;21.40
66403;BMP180;53212;52.112;5.144;2023-07-09T03:28:13;101775.80;;;21.30
66403;BMP180;53212;52.112;5.144;2023-07-09T03:30:46;101775.40;;;21.30
66403;BMP180;53212;52.112;5.144;2023-07-09T03:33:14;101766.80;;;21.30
66403;BMP180;53212;52.112;5.144;2023-07-09T03:35:40;101770.40;;;21.30
66403;BMP180;53212;52.112;5.144;2023-07-09T03:38:08;101764.60;;;21.30
66403;BMP180;53212;52.112;5.144;2023-07-09T03:40:34;101768.60;;;21.30
66403;BMP180;53212;52.112;5.144;2023-07-09T03:43:00;101769.80;;;21.30
66403;BMP180;53212;52.112;5.144;2023-07-09T03:45:26;101771.40;;;21.30
66403;BMP180;53212;52.112;5.144;2023-07-09T03:47:51;101773.00;;;21.30
66403;BMP180;53212;52.112;5.144;2023-07-09T03:50:17;101775.40;;;21.30
66403;BMP180;53212;52.112;5.144;2023-07-09T03:52:43;101777.80;;;21.30
66403;BMP180;53212;52.112;5.144;2023-07-09T03:55:09;101785.00;;;21.30
66403;BMP180;53212;52.112;5.144;2023-07-09T03:57:35;101788.60;;;21.30
66403;BMP180;53212;52.112;5.144;2023-07-09T04:00:02;101787.00;;;21.30
66403;BMP180;53212;52.112;5.144;2023-07-09T04:02:28;101788.40;;;21.32
66403;BMP180;53212;52.112;5.144;2023-07-09T04:04:54;101787.20;;;21.40
66403;BMP180;53212;52.112;5.144;2023-07-09T04:07:19;101782.40;;;21.40
66403;BMP180;53212;52.112;5.144;2023-07-09T04:09:45;101779.20;;;21.40
66403;BMP180;53212;52.112;5.144;2023-07-09T04:12:10;101783.80;;;21.40
66403;BMP180;53212;52.112;5.144;2023-07-09T04:14:36;101787.00;;;21.44
66403;BMP180;53212;52.112;5.144;2023-07-09T04:17:01;101787.80;;;21.50
66403;BMP180;53212;52.112;5.144;2023-07-09T04:19:27;101789.60;;;21.50
66403;BMP180;53212;52.112;5.144;2023-07-09T04:21:53;101789.60;;;21.60
66403;BMP180;53212;52.112;5.144;2023-07-09T04:24:19;101789.40;;;21.70
66403;BMP180;53212;52.112;5.144;2023-07-09T04:26:46;101794.60;;;21.78
66403;BMP180;53212;52.112;5.144;2023-07-09T04:29:12;101789.40;;;21.80
66403;BMP180;53212;52.112;5.144;2023-07-09T04:31:39;101787.40;;;21.90
66403;BMP180;53212;52.112;5.144;2023-07-09T04:34:05;101786.60;;;21.92
66403;BMP180;53212;52.112;5.144;2023-07-09T04:36:32;101790.60;;;22.00
66403;BMP180;53212;52.112;5.144;2023-07-09T04:38:57;101781.60;;;22.10
66403;BMP180;53212;52.112;5.144;2023-07-09T04:41:23;101782.20;;;22.10
66403;BMP180;53212;52.112;5.144;2023-07-09T04:43:49;101782.60;;;22.20
66403;BMP180;53212;52.112;5.144;2023-07-09T04:46:14;101780.60;;;22.28
66403;BMP180;53212;52.112;5.144;2023-07-09T04:48:40;101777.80;;;22.32
66403;BMP180;53212;52.112;5.144;2023-07-09T04:51:06;101777.80;;;22.40
66403;BMP180;53212;52.112;5.144;2023-07-09T04:53:31;101779.60;;;22.48
66403;BMP180;53212;52.112;5.144;2023-07-09T04:55:56;101777.60;;;22.50
66403;BMP180;53212;52.112;5.144;2023-07-09T04:58:22;101773.40;;;22.50
66403;BMP180;53212;52.112;5.144;2023-07-09T05:00:48;101776.00;;;22.60
66403;BMP180;53212;52.112;5.144;2023-07-09T05:03:15;101773.40;;;22.60
66403;BMP180;53212;52.112;5.144;2023-07-09T05:05:46;101773.00;;;22.70
66403;BMP180;53212;52.112;5.144;2023-07-09T05:08:13;101773.60;;;22.70
66403;BMP180;53212;52.112;5.144;2023-07-09T05:10:49;101773.60;;;22.80
66403;BMP180;53212;52.112;5.144;2023-07-09T05:13:16;101772.40;;;22.98
66403;BMP180;53212;52.112;5.144;2023-07-09T05:15:47;101766.80;;;23.10
66403;BMP180;53212;52.112;5.144;2023-07-09T05:18:14;101766.60;;;23.20
66403;BMP180;53212;52.112;5.144;2023-07-09T05:20:40;101768.80;;;23.30
66403;BMP180;53212;52.112;5.144;2023-07-09T05:23:08;101767.20;;;23.40
66403;BMP180;53212;52.112;5.144;2023-07-09T05:25:33;101768.60;;;23.50
66403;BMP180;53212;52.112;5.144;2023-07-09T05:27:59;101769.20;;;23.72
66403;BMP180;53212;52.112;5.144;2023-07-09T05:30:26;101770.80;;;24.04
66403;BMP180;53212;52.112;5.144;2023-07-09T05:32:52;101771.80;;;24.30
66403;BMP180;53212;52.112;5.144;2023-07-09T05:35:19;101769.20;;;24.60
66403;BMP180;53212;52.112;5.144;2023-07-09T05:37:44;101772.00;;;24.90
66403;BMP180;53212;52.112;5.144;2023-07-09T05:40:10;101768.00;;;25.22
66403;BMP180;53212;52.112;5.144;2023-07-09T05:42:36;101769.00;;;25.50
66403;BMP180;53212;52.112;5.144;2023-07-09T05:45:01;101769.20;;;25.74
66403;BMP180;53212;52.112;5.144;2023-07-09T05:47:27;101768.00;;;26.04
66403;BMP180;53212;52.112;5.144;2023-07-09T05:49:53;101770.80;;;26.32
66403;BMP180;53212;52.112;5.144;2023-07-09T05:52:21;101770.20;;;26.54
66403;BMP180;53212;52.112;5.144;2023-07-09T05:54:51;101772.20;;;26.70
66403;BMP180;53212;52.112;5.144;2023-07-09T05:57:18;101768.80;;;26.98
66403;BMP180;53212;52.112;5.144;2023-07-09T05:59:43;101770.40;;;27.22
66403;BMP180;53212;52.112;5.144;2023-07-09T06:02:18;101774.20;;;27.50
66403;BMP180;53212;52.112;5.144;2023-07-09T06:04:44;101780.80;;;27.70
66403;BMP180;53212;52.112;5.144;2023-07-09T06:07:12;101779.40;;;27.94
66403;BMP180;53212;52.112;5.144;2023-07-09T06:09:39;101778.60;;;28.20
66403;BMP180;53212;52.112;5.144;2023-07-09T06:12:06;101786.40;;;28.46
66403;BMP180;53212;52.112;5.144;2023-07-09T06:14:32;101785.40;;;28.64
66403;BMP180;53212;52.112;5.144;2023-07-09T06:16:59;101790.80;;;28.86
66403;BMP180;53212;52.112;5.144;2023-07-09T06:19:25;101794.00;;;29.14
66403;BMP180;53212;52.112;5.144;2023-07-09T06:21:50;101798.60;;;29.38
66403;BMP180;53212;52.112;5.144;2023-07-09T06:24:16;101797.80;;;29.46
66403;BMP180;53212;52.112;5.144;2023-07-09T06:26:41;101799.20;;;29.60
66403;BMP180;53212;52.112;5.144;2023-07-09T06:29:07;101803.20;;;29.66
66403;BMP180;53212;52.112;5.144;2023-07-09T06:31:32;101803.60;;;29.90
66403;BMP180;53212;52.112;5.144;2023-07-09T06:33:58;101804.80;;;30.14
66403;BMP180;53212;52.112;5.144;2023-07-09T06:36:23;101806.60;;;30.48
66403;BMP180;53212;52.112;5.144;2023-07-09T06:38:49;101809.40;;;30.70
66403;BMP180;53212;52.112;5.144;2023-07-09T06:41:15;101816.00;;;31.04
66403;BMP180;53212;52.112;5.144;2023-07-09T06:43:42;101817.20;;;31.32
66403;BMP180;53212;52.112;5.144;2023-07-09T06:46:10;101814.40;;;31.64
66403;BMP180;53212;52.112;5.144;2023-07-09T06:48:36;101814.80;;;31.90
66403;BMP180;53212;52.112;5.144;2023-07-09T06:51:02;101810.20;;;32.04
66403;BMP180;53212;52.112;5.144;2023-07-09T06:53:28;101809.20;;;32.16
66403;BMP180;53212;52.112;5.144;2023-07-09T06:55:55;101806.60;;;32.20
66403;BMP180;53212;52.112;5.144;2023-07-09T06:58:29;101806.00;;;32.40
66403;BMP180;53212;52.112;5.144;2023-07-09T07:00:57;101808.20;;;32.40
66403;BMP180;53212;52.112;5.144;2023-07-09T07:03:24;101808.40;;;32.20
66403;BMP180;53212;52.112;5.144;2023-07-09T07:05:52;101810.20;;;32.40
66403;BMP180;53212;52.112;5.144;2023-07-09T07:08:23;101808.80;;;32.60
66403;BMP180;53212;52.112;5.144;2023-07-09T07:10:50;101811.60;;;32.74
66403;BMP180;53212;52.112;5.144;2023-07-09T07:13:21;101811.60;;;33.00
66403;BMP180;53212;52.112;5.144;2023-07-09T07:15:48;101819.40;;;32.80
66403;BMP180;53212;52.112;5.144;2023-07-09T07:18:17;101819.60;;;32.90
66403;BMP180;53212;52.112;5.144;2023-07-09T07:20:42;101827.20;;;33.10
66403;BMP180;53212;52.112;5.144;2023-07-09T07:23:08;101825.60;;;32.80
66403;BMP180;53212;52.112;5.144;2023-07-09T07:25:33;101832.60;;;32.60
66403;BMP180;53212;52.112;5.144;2023-07-09T07:27:59;101829.20;;;32.50
66403;BMP180;53212;52.112;5.144;2023-07-09T07:30:24;101827.40;;;32.40
66403;BMP180;53212;52.112;5.144;2023-07-09T07:32:50;101825.80;;;32.50
66403;BMP180;53212;52.112;5.144;2023-07-09T07:35:16;101833.40;;;32.60
66403;BMP180;53212;52.112;5.144;2023-07-09T07:37:43;101832.80;;;32.92
66403;BMP180;53212;52.112;5.144;2023-07-09T07:40:09;101839.40;;;33.08
66403;BMP180;53212;52.112;5.144;2023-07-09T07:42:36;101837.20;;;33.00
66403;BMP180;53212;52.112;5.144;2023-07-09T07:45:03;101842.20;;;32.90
66403;BMP180;53212;52.112;5.144;2023-07-09T07:47:29;101843.60;;;32.88
66403;BMP180;53212;52.112;5.144;2023-07-09T07:49:56;101847.60;;;32.70
66403;BMP180;53212;52.112;5.144;2023-07-09T07:52:22;101842.80;;;32.50
66403;BMP180;53212;52.112;5.144;2023-07-09T07:54:48;101840.20;;;32.36
66403;BMP180;53212;52.112;5.144;2023-07-09T07:57:14;101836.00;;;32.20
66403;BMP180;53212;52.112;5.144;2023-07-09T07:59:39;101835.20;;;32.20
66403;BMP180;53212;52.112;5.144;2023-07-09T08:02:10;101836.80;;;32.10
66403;BMP180;53212;52.112;5.144;2023-07-09T08:04:36;101838.40;;;32.00
66403;BMP180;53212;52.112;5.144;2023-07-09T08:07:02;101834.20;;;32.00
66403;BMP180;53212;52.112;5.144;2023-07-09T08:09:28;101836.00;;;32.10
66403;BMP180;53212;52.112;5.144;2023-07-09T08:11:53;101830.20;;;32.10
66403;BMP180;53212;52.112;5.144;2023-07-09T08:14:19;101828.80;;;32.00
66403;BMP180;53212;52.112;5.144;2023-07-09T08:16:46;101839.60;;;31.90
66403;BMP180;53212;52.112;5.144;2023-07-09T08:19:11;101834.20;;;31.80
66403;BMP180;53212;52.112;5.144;2023-07-09T08:21:37;101835.60;;;31.80
66403;BMP180;53212;52.112;5.144;2023-07-09T08:24:03;101832.40;;;31.80
66403;BMP180;53212;52.112;5.144;2023-07-09T08:26:28;101828.20;;;31.80
66403;BMP180;53212;52.112;5.144;2023-07-09T08:28:54;101830.40;;;31.80
66403;BMP180;53212;52.112;5.144;2023-07-09T08:31:20;101826.20;;;31.70
66403;BMP180;53212;52.112;5.144;2023-07-09T08:33:45;101826.60;;;31.60
66403;BMP180;53212;52.112;5.144;2023-07-09T08:36:11;101824.00;;;31.50
66403;BMP180;53212;52.112;5.144;2023-07-09T08:38:36;101824.60;;;31.40
66403;BMP180;53212;52.112;5.144;2023-07-09T08:41:08;101821.80;;;31.30
66403;BMP180;53212;52.112;5.144;2023-07-09T08:49:01;101821.00;;;31.20
66403;BMP180;53212;52.112;5.144;2023-07-09T08:51:39;101823.80;;;31.10
66403;BMP180;53212;52.112;5.144;2023-07-09T08:54:26;101818.80;;;31.10
66403;BMP180;53212;52.112;5.144;2023-07-09T08:56:54;101814.80;;;31.10
66403;BMP180;53212;52.112;5.144;2023-07-09T08:59:21;101812.60;;;31.10
66403;BMP180;53212;52.112;5.144;2023-07-09T09:01:52;101816.20;;;31.10
66403;BMP180;53212;52.112;5.144;2023-07-09T09:04:31;101811.80;;;31.20
66403;BMP180;53212;52.112;5.144;2023-07-09T09:07:31;101809.20;;;31.30
66403;BMP180;53212;52.112;5.144;2023-07-09T09:10:02;101816.80;;;31.40
66403;BMP180;53212;52.112;5.144;2023-07-09T09:12:35;101811.40;;;31.30
66403;BMP180;53212;52.112;5.144;2023-07-09T09:15:11;101809.40;;;31.32
66403;BMP180;53212;52.112;5.144;2023-07-09T09:17:40;101812.80;;;31.30
66403;BMP180;53212;52.112;5.144;2023-07-09T09:20:26;101811.00;;;31.20
66403;BMP180;53212;52.112;5.144;2023-07-09T09:23:12;101809.40;;;31.00
66403;BMP180;53212;52.112;5.144;2023-07-09T09:25:42;101807.00;;;30.80
66403;BMP180;53212;52.112;5.144;2023-07-09T09:28:09;101802.60;;;30.80
66403;BMP180;53212;52.112;5.144;2023-07-09T09:30:35;101797.00;;;30.90
66403;BMP180;53212;52.112;5.144;2023-07-09T09:33:07;101794.80;;;31.10
66403;BMP180;53212;52.112;5.144;2023-07-09T09:35:36;101792.80;;;31.20
66403;BMP180;53212;52.112;5.144;2023-07-09T09:38:10;101792.60;;;31.30
66403;BMP180;53212;52.112;5.144;2023-07-09T09:40:37;101792.40;;;31.30
66403;BMP180;53212;52.112;5.144;2023-07-09T09:43:11;101794.80;;;31.30
66403;BMP180;53212;52.112;5.144;2023-07-09T09:45:39;101796.80;;;31.30
66403;BMP180;53212;52.112;5.144;2023-07-09T09:48:17;101793.20;;;31.38
66403;BMP180;53212;52.112;5.144;2023-07-09T09:50:45;101788.60;;;31.50
66403;BMP180;53212;52.112;5.144;2023-07-09T09:53:19;101786.40;;;31.50
66403;BMP180;53212;52.112;5.144;2023-07-09T09:55:45;101785.80;;;31.54
66403;BMP180;53212;52.112;5.144;2023-07-09T09:58:14;101788.20;;;31.70
66403;BMP180;53212;52.112;5.144;2023-07-09T10:00:47;101790.20;;;31.72
66403;BMP180;53212;52.112;5.144;2023-07-09T10:03:13;101791.80;;;31.70
66403;BMP180;53212;52.112;5.144;2023-07-09T10:05:58;101791.60;;;31.72
66403;BMP180;53212;52.112;5.144;2023-07-09T10:08:49;101792.60;;;31.80
66403;BMP180;53212;52.112;5.144;2023-07-09T10:11:44;101782.80;;;32.00
66403;BMP180;53212;52.112;5.144;2023-07-09T10:20:24;101775.20;;;32.10
66403;BMP180;53212;52.112;5.144;2023-07-09T10:25:46;101791.00;;;32.08
66403;BMP180;53212;52.112;5.144;2023-07-09T10:31:20;101803.80;;;32.10
66403;BMP180;53212;52.112;5.144;2023-07-09T10:39:56;101803.80;;;31.70
66403;BMP180;53212;52.112;5.144;2023-07-09T10:42:45;101807.40;;;31.70
66403;BMP180;53212;52.112;5.144;2023-07-09T10:45:19;101812.60;;;31.74
66403;BMP180;53212;52.112;5.144;2023-07-09T10:48:02;101812.20;;;31.66
66403;BMP180;53212;52.112;5.144;2023-07-09T10:50:37;101820.00;;;31.34
66403;BMP180;53212;52.112;5.144;2023-07-09T10:56:04;101804.20;;;31.20
66403;BMP180;53212;52.112;5.144;2023-07-09T11:01:31;101807.60;;;31.40
66403;BMP180;53212;52.112;5.144;2023-07-09T11:04:04;101808.80;;;31.42
66403;BMP180;53212;52.112;5.144;2023-07-09T11:06:45;101805.20;;;31.60
66403;BMP180;53212;52.112;5.144;2023-07-09T11:09:35;101810.80;;;31.90
66403;BMP180;53212;52.112;5.144;2023-07-09T11:12:10;101810.60;;;32.20
66403;BMP180;53212;52.112;5.144;2023-07-09T11:14:49;101810.80;;;32.30
66403;BMP180;53212;52.112;5.144;2023-07-09T11:17:19;101805.80;;;32.20
66403;BMP180;53212;52.112;5.144;2023-07-09T11:19:52;101804.40;;;32.38
66403;BMP180;53212;52.112;5.144;2023-07-09T11:22:36;101799.80;;;32.50
66403;BMP180;53212;52.112;5.144;2023-07-09T11:25:12;101804.60;;;32.70
66403;BMP180;53212;52.112;5.144;2023-07-09T11:27:54;101797.80;;;32.70
66403;BMP180;53212;52.112;5.144;2023-07-09T11:30:28;101792.20;;;32.70
66403;BMP180;53212;52.112;5.144;2023-07-09T11:33:04;101789.00;;;32.70
66403;BMP180;53212;52.112;5.144;2023-07-09T11:35:47;101792.20;;;32.80
66403;BMP180;53212;52.112;5.144;2023-07-09T11:38:20;101789.20;;;32.90
66403;BMP180;53212;52.112;5.144;2023-07-09T11:40:53;101795.20;;;32.74
66403;BMP180;53212;52.112;5.144;2023-07-09T11:43:33;101791.60;;;32.74
66403;BMP180;53212;52.112;5.144;2023-07-09T11:46:20;101797.00;;;32.80
66403;BMP180;53212;52.112;5.144;2023-07-09T11:48:48;101799.00;;;32.90
66403;BMP180;53212;52.112;5.144;2023-07-09T11:51:22;101804.60;;;33.00
66403;BMP180;53212;52.112;5.144;2023-07-09T11:53:53;101811.40;;;33.10
66403;BMP180;53212;52.112;5.144;2023-07-09T11:56:22;101817.60;;;33.00
66403;BMP180;53212;52.112;5.144;2023-07-09T11:58:57;101826.60;;;33.00
66403;BMP180;53212;52.112;5.144;2023-07-09T12:01:43;101834.20;;;32.64
66403;BMP180;53212;52.112;5.144;2023-07-09T12:04:18;101835.80;;;32.30
66403;BMP180;53212;52.112;5.144;2023-07-09T12:06:46;101840.00;;;32.30
66403;BMP180;53212;52.112;5.144;2023-07-09T12:09:19;101845.60;;;32.10
66403;BMP180;53212;52.112;5.144;2023-07-09T12:11:49;101837.20;;;32.10
66403;BMP180;53212;52.112;5.144;2023-07-09T12:14:18;101846.80;;;32.30
66403;BMP180;53212;52.112;5.144;2023-07-09T12:16:47;101853.20;;;31.98
66403;BMP180;53212;52.112;5.144;2023-07-09T12:19:17;101850.00;;;31.60
66403;BMP180;53212;52.112;5.144;2023-07-09T12:21:46;101856.20;;;31.40
66403;BMP180;53212;52.112;5.144;2023-07-09T12:24:25;101852.00;;;31.48
66403;BMP180;53212;52.112;5.144;2023-07-09T12:26:57;101855.20;;;31.70
66403;BMP180;53212;52.112;5.144;2023-07-09T12:29:28;101867.20;;;31.80
66403;BMP180;53212;52.112;5.144;2023-07-09T12:31:58;101877.20;;;31.60
66403;BMP180;53212;52.112;5.144;2023-07-09T12:34:24;101894.40;;;31.30
66403;BMP180;53212;52.112;5.144;2023-07-09T12:36:52;101897.60;;;31.20
66403;BMP180;53212;52.112;5.144;2023-07-09T12:39:24;101899.40;;;31.00
66403;BMP180;53212;52.112;5.144;2023-07-09T12:41:54;101896.80;;;31.10
66403;BMP180;53212;52.112;5.144;2023-07-09T12:44:22;101879.40;;;31.30
66403;BMP180;53212;52.112;5.144;2023-07-09T12:46:50;101878.00;;;31.50
66403;BMP180;53212;52.112;5.144;2023-07-09T12:49:31;101866.40;;;31.50
66403;BMP180;53212;52.112;5.144;2023-07-09T12:52:07;101862.40;;;31.70
66403;BMP180;53212;52.112;5.144;2023-07-09T12:54:34;101864.00;;;31.60
66403;BMP180;53212;52.112;5.144;2023-07-09T12:57:00;101876.40;;;31.60
66403;BMP180;53212;52.112;5.144;2023-07-09T12:59:36;101876.20;;;31.50
66403;BMP180;53212;52.112;5.144;2023-07-09T13:04:46;101858.00;;;31.50
66403;BMP180;53212;52.112;5.144;2023-07-09T13:07:39;101865.40;;;31.68
66403;BMP180;53212;52.112;5.144;2023-07-09T13:10:23;101876.00;;;31.60
66403;BMP180;53212;52.112;5.144;2023-07-09T13:12:55;101877.40;;;31.60
66403;BMP180;53212;52.112;5.144;2023-07-09T13:15:39;101876.80;;;31.80
66403;BMP180;53212;52.112;5.144;2023-07-09T13:18:10;101881.20;;;31.80
66403;BMP180;53212;52.112;5.144;2023-07-09T13:20:42;101870.60;;;31.90
66403;BMP180;53212;52.112;5.144;2023-07-09T13:23:20;101865.00;;;32.00
66403;BMP180;53212;52.112;5.144;2023-07-09T13:25:46;101885.00;;;31.80
66403;BMP180;53212;52.112;5.144;2023-07-09T13:28:23;101890.00;;;31.40
66403;BMP180;53212;52.112;5.144;2023-07-09T13:31:07;101889.80;;;30.82
66403;BMP180;53212;52.112;5.144;2023-07-09T13:33:33;101898.00;;;30.46
66403;BMP180;53212;52.112;5.144;2023-07-09T13:35:58;101895.20;;;30.10
66403;BMP180;53212;52.112;5.144;2023-07-09T13:38:24;101879.60;;;29.64
66403;BMP180;53212;52.112;5.144;2023-07-09T13:40:56;101908.20;;;29.22
66403;BMP180;53212;52.112;5.144;2023-07-09T13:43:34;101878.40;;;28.76
66403;BMP180;53212;52.112;5.144;2023-07-09T13:46:03;101885.80;;;28.30
66403;BMP180;53212;52.112;5.144;2023-07-09T13:48:32;101891.60;;;28.02
66403;BMP180;53212;52.112;5.144;2023-07-09T13:50:58;101888.20;;;27.80
66403;BMP180;53212;52.112;5.144;2023-07-09T13:53:31;101883.60;;;27.50
66403;BMP180;53212;52.112;5.144;2023-07-09T13:55:58;101883.20;;;27.16
66403;BMP180;53212;52.112;5.144;2023-07-09T13:58:26;101884.40;;;26.90
66403;BMP180;53212;52.112;5.144;2023-07-09T14:00:59;101884.00;;;26.80
66403;BMP180;53212;52.112;5.144;2023-07-09T14:03:31;101898.80;;;26.70
66403;BMP180;53212;52.112;5.144;2023-07-09T14:05:57;101891.60;;;26.44
66403;BMP180;53212;52.112;5.144;2023-07-09T14:08:23;101888.40;;;26.30
66403;BMP180;53212;52.112;5.144;2023-07-09T14:10:49;101885.80;;;26.22
66403;BMP180;53212;52.112;5.144;2023-07-09T14:13:23;101883.60;;;26.14
66403;BMP180;53212;52.112;5.144;2023-07-09T14:15:49;101865.60;;;26.00
66403;BMP180;53212;52.112;5.144;2023-07-09T14:18:19;101871.20;;;25.84
66403;BMP180;53212;52.112;5.144;2023-07-09T14:20:45;101870.60;;;25.50
66403;BMP180;53212;52.112;5.144;2023-07-09T14:23:14;101867.00;;;25.30
66403;BMP180;53212;52.112;5.144;2023-07-09T14:25:41;101875.80;;;25.20
66403;BMP180;53212;52.112;5.144;2023-07-09T14:28:17;101867.60;;;25.16
66403;BMP180;53212;52.112;5.144;2023-07-09T14:30:44;101874.00;;;25.10
66403;BMP180;53212;52.112;5.144;2023-07-09T14:33:17;101857.80;;;25.04
66403;BMP180;53212;52.112;5.144;2023-07-09T14:35:44;101861.20;;;24.80
66403;BMP180;53212;52.112;5.144;2023-07-09T14:38:22;101852.00;;;24.58
66403;BMP180;53212;52.112;5.144;2023-07-09T14:40:51;101862.80;;;24.50
66403;BMP180;53212;52.112;5.144;2023-07-09T14:43:17;101894.40;;;24.30
66403;BMP180;53212;52.112;5.144;2023-07-09T14:45:43;102024.00;;;24.30